Latest Weather Observations for Jacup

IDW60801

Issued at 7:05 am WST Saturday 1 November 2014 (issued every 30 minutes, with the page automatically refreshed every 10 minutes)

About weather observations | Map of weather stations | Latest weather observations for WA | Other Formats
Station Details ID: 010905 Name: JACUP Lat: -33.89 Lon: 119.11 Height: 305.0 m
Data from the previous 72 hours. | See also: Recent months at Jacup
Date/Time
WST
Temp
°C
App
Temp
°C
Dew
Point
Rel
Hum
%
Delta-T
°C
Wind Press
QNH
hPa
Press
MSL
hPa
Rain
since 9 am
mm
Dir
 
Spd
km/h
Gust
km/h
Spd
kts
Gust
kts
01/07:00am 12.0 7.4 6.3 68 2.7 NE 20 30 11 16 1022.0 1021.7 0.0
01/06:30am 10.2 5.7 6.2 76 1.9 NNE 19 28 10 15 1021.8 1021.4 0.0
01/06:00am 9.0 4.9 6.3 83 1.3 NNE 17 22 9 12 1021.6 1021.2 0.0
01/05:30am 5.6 2.3 4.6 93 0.4 NNE 11 15 6 8 1021.4 1021.0 0.0
01/05:00am 4.6 1.0 2.9 89 0.7 N 11 13 6 7 1021.3 1020.9 0.0
01/04:30am 5.8 2.4 4.1 89 0.7 NNE 11 13 6 7 1020.9 1020.5 0.0
01/04:00am 4.4 1.2 3.2 92 0.5 NE 9 13 5 7 1020.7 1020.4 0.0
01/03:30am 4.4 1.9 3.5 94 0.4 E 6 7 3 4 1020.6 1020.3 0.0
01/03:00am 4.7 2.2 3.7 93 0.4 E 6 7 3 4 1020.5 1020.2 0.0
01/02:30am 4.3 1.7 3.1 92 0.5 E 6 7 3 4 1020.5 1020.2 0.0
01/02:00am 5.1 2.6 3.6 90 0.6 E 6 7 3 4 1020.5 1020.2 0.0
01/01:30am 5.8 3.5 4.6 92 0.5 E 6 7 3 4 1020.6 1020.3 0.0
01/01:00am 5.8 3.1 3.8 87 0.9 E 7 9 4 5 1020.5 1020.2 0.0
01/12:30am 6.4 4.0 4.2 86 1.0 E 6 7 3 4 1020.6 1020.3 0.0
01/12:00am 7.0 4.6 5.2 88 0.8 E 7 11 4 6 1020.9 1020.5 0.0
 
Date/Time
WST
Temp
°C
App
Temp
°C
Dew
Point
Rel
Hum
%
Delta-T
°C
Wind Press
QNH
hPa
Press
MSL
hPa
Rain
since 9 am
mm
Dir
 
Spd
km/h
Gust
km/h
Spd
kts
Gust
kts
31/11:30pm 6.8 4.5 4.6 86 1.0 ESE 6 7 3 4 1021.3 1020.9 0.0
31/11:00pm 6.9 4.0 4.9 87 0.9 ESE 9 11 5 6 1021.5 1021.1 0.0
31/10:30pm 6.5 5.3 4.7 88 0.8 CALM 0 0 0 0 1021.8 1021.4 0.0
31/10:00pm 6.9 5.8 4.9 87 0.9 CALM 0 0 0 0 1022.0 1021.7 0.0
31/09:30pm 8.1 5.4 5.6 84 1.1 ESE 9 13 5 7 1022.0 1021.7 0.0
31/09:00pm 8.2 6.0 5.3 82 1.3 ESE 6 9 3 5 1021.8 1021.4 0.0
31/08:30pm 9.0 7.2 5.6 79 1.6 SE 4 7 2 4 1021.8 1021.4 0.0
31/08:00pm 10.2 7.3 6.4 77 1.8 SE 11 17 6 9 1021.3 1020.9 0.0
31/07:30pm 10.8 7.8 6.2 73 2.2 SE 11 15 6 8 1021.1 1020.7 0.0
31/07:00pm 11.7 8.5 6.8 72 2.4 SE 13 20 7 11 1020.6 1020.3 0.0
31/06:30pm 12.8 8.4 6.6 66 3.0 SSE 19 26 10 14 1020.3 1020.0 0.0
31/06:00pm 14.1 9.7 7.2 63 3.4 SE 20 32 11 17 1019.8 1019.5 0.0
31/05:30pm 15.3 10.3 6.6 56 4.3 SSE 22 33 12 18 1019.3 1019.0 0.0
31/05:00pm 16.1 11.9 5.7 50 5.1 SSE 17 28 9 15 1019.1 1018.8 0.0
31/04:30pm 17.2 12.5 6.1 48 5.5 S 20 32 11 17 1018.7 1018.3 0.0
31/04:00pm 18.4 13.8 5.6 43 6.3 S 19 30 10 16 1018.3 1017.9 0.0
31/03:30pm 19.0 14.3 5.1 40 6.9 S 19 28 10 15 1018.0 1017.6 0.0
31/03:00pm 19.1 14.0 5.9 42 6.6 SSE 22 35 12 19 1017.7 1017.3 0.0
31/02:30pm 19.2 14.9 5.3 40 6.9 SSE 17 22 9 12 1017.5 1017.1 0.0
31/02:00pm 19.8 15.1 5.1 38 7.3 S 19 30 10 16 1017.3 1017.0 0.0
31/01:30pm 18.6 14.4 5.5 42 6.5 SSE 17 33 9 18 1017.3 1017.0 0.0
31/01:00pm 18.0 13.3 6.2 46 5.9 SSE 20 33 11 18 1017.2 1016.9 0.0
31/12:30pm 20.1 16.0 6.1 40 7.1 S 17 32 9 17 1017.1 1016.8 0.0
31/12:00pm 17.1 12.5 6.3 49 5.4 SSE 20 26 11 14 1017.2 1016.9 0.0
31/11:30am 17.5 13.5 6.7 49 5.4 S 17 30 9 16 1017.3 1017.0 0.0
31/11:00am 17.3 13.0 6.8 50 5.3 S 19 26 10 14 1017.3 1017.0 0.0
31/10:30am 16.4 11.8 6.5 52 4.9 S 20 33 11 18 1017.2 1016.9 0.0
31/10:00am 16.0 11.4 6.4 53 4.7 S 20 32 11 17 1017.2 1016.9 0.0
31/09:30am 15.8 11.7 7.8 59 4.1 S 19 32 10 17 1017.0 1016.7 0.0
31/09:00am 15.0 10.5 7.1 59 3.9 S 20 30 11 16 1016.6 1016.3 0.0
31/08:30am 16.6 11.8 7.5 55 4.6 S 22 39 12 21 1016.2 1015.8 0.0
31/08:00am 15.0 9.7 6.6 57 4.1 SSW 24 39 13 21 1016.0 1015.6 0.0
31/07:30am 14.5 10.2 7.8 64 3.4 SW 20 30 11 16 1015.7 1015.3 0.0
31/07:00am 13.7 9.5 8.1 69 2.8 SSW 20 30 11 16 1015.4 1015.0 0.0
31/06:30am 13.0 9.1 9.4 79 1.9 SSW 20 32 11 17 1015.0 1014.6 0.0
31/06:00am 11.9 8.2 9.6 86 1.2 SW 19 26 10 14 1014.7 1014.3 0.0
31/05:30am 11.2 8.0 9.8 91 0.7 SSW 17 24 9 13 1014.2 1013.8 0.0
31/05:00am 11.2 8.1 10.3 94 0.5 SSW 17 30 9 16 1013.7 1013.4 0.0
31/04:30am 11.8 7.3 10.0 89 0.9 SSW 24 37 13 20 1013.1 1012.7 0.0
31/04:00am 12.0 7.9 10.2 89 0.9 SSW 22 35 12 19 1012.7 1012.3 0.0
31/03:30am 12.0 8.4 10.6 91 0.7 SW 20 32 11 17 1012.2 1011.8 0.0
31/03:00am 13.8 10.2 10.0 78 2.0 W 19 30 10 16 1011.5 1011.1 0.0
31/02:30am 13.7 10.7 9.4 75 2.2 W 15 26 8 14 1011.3 1010.9 0.0
31/02:00am 13.1 10.4 9.0 76 2.1 WNW 13 19 7 10 1011.3 1010.9 0.0
31/01:30am 12.1 9.7 8.6 79 1.8 WNW 11 15 6 8 1011.2 1010.8 0.0
31/01:00am 12.3 10.2 8.4 77 2.0 WNW 9 11 5 6 1011.0 1010.6 0.0
31/12:30am 12.4 10.3 8.3 76 2.1 NW 9 15 5 8 1011.0 1010.6 0.0
31/12:00am 13.4 11.5 9.1 75 2.2 W 9 13 5 7 1011.6 1011.2 0.0
 
Date/Time
WST
Temp
°C
App
Temp
°C
Dew
Point
Rel
Hum
%
Delta-T
°C
Wind Press
QNH
hPa
Press
MSL
hPa
Rain
since 9 am
mm
Dir
 
Spd
km/h
Gust
km/h
Spd
kts
Gust
kts
30/11:30pm 14.1 12.3 10.7 80 1.8 W 11 15 6 8 1011.9 1011.5 0.0
30/11:00pm 13.8 12.9 11.5 86 1.2 WNW 7 11 4 6 1011.9 1011.5 0.0
30/10:30pm 13.6 12.7 11.3 86 1.2 WNW 7 11 4 6 1012.0 1011.6 0.0
30/10:00pm 13.1 12.0 10.8 86 1.2 WNW 7 13 4 7 1012.1 1011.7 0.0
30/09:30pm 11.9 12.0 10.0 88 1.0 CALM 0 0 0 0 1011.9 1011.5 0.0
30/09:00pm 12.8 12.5 10.2 84 1.4 SE 2 6 1 3 1011.7 1011.3 0.0
30/08:30pm 14.0 12.7 11.2 83 1.5 SSE 9 13 5 7 1011.6 1011.2 0.0
30/08:00pm 14.8 13.7 11.8 82 1.6 SSE 9 15 5 8 1011.3 1010.9 0.0
30/07:30pm 15.3 12.7 12.1 81 1.8 SSE 17 24 9 13 1011.1 1010.7 0.0
30/07:00pm 15.5 13.4 12.3 81 1.8 SE 15 20 8 11 1010.6 1010.1 0.0
30/06:30pm 16.3 13.9 12.5 78 2.1 SE 17 26 9 14 1010.3 1009.9 0.0
30/06:00pm 17.5 14.5 12.4 72 2.9 SSE 20 26 11 14 1009.9 1009.5 0.0
30/05:30pm 18.8 15.2 11.9 64 3.9 SSE 22 30 12 16 1009.6 1009.2 0.0
30/05:00pm 20.6 16.9 11.5 56 5.1 SE 22 32 12 17 1009.2 1008.8 0.0
30/04:30pm 22.7 19.1 11.7 49 6.3 SE 22 32 12 17 1008.7 1008.3 0.0
30/04:00pm 24.0 20.8 12.0 47 6.9 SE 20 30 11 16 1008.5 1008.1 0.0
30/03:30pm 24.2 20.9 11.5 45 7.3 SE 20 33 11 18 1008.5 1008.1 0.0
30/03:29pm 24.3 21.0 11.6 45 7.3 SE 20 33 11 18 1008.4 1008.0 0.0
30/03:00pm 29.4 25.6 9.0 28 11.5 W 19 30 10 16 1008.1 1007.7 0.0
30/02:30pm 29.3 25.1 8.4 27 11.6 WNW 20 37 11 20 1008.2 1007.8 0.0
30/02:00pm 29.0 26.0 9.2 29 11.2 W 15 24 8 13 1008.7 1008.3 0.0
30/01:30pm 27.8 24.4 9.1 31 10.4 W 17 32 9 17 1009.3 1008.9 0.0
30/01:00pm 26.9 24.4 9.7 34 9.7 W 13 22 7 12 1009.7 1009.3 0.0
30/12:30pm 27.0 24.8 10.7 36 9.3 W 13 19 7 10 1010.1 1009.7 0.0
30/12:00pm 25.3 23.7 11.5 42 7.9 SW 11 20 6 11 1010.6 1010.1 0.0
30/11:30am 24.4 22.6 12.0 46 7.2 W 13 22 7 12 1011.1 1010.7 0.0
30/11:00am 22.0 20.7 11.1 50 6.1 WNW 9 20 5 11 1011.6 1011.2 0.0
30/10:30am 20.8 18.6 10.9 53 5.5 WSW 13 20 7 11 1012.1 1011.7 0.0
30/10:00am 19.9 18.6 11.4 58 4.7 W 9 15 5 8 1012.6 1012.2 0.0
30/09:30am 18.9 17.2 11.2 61 4.3 WSW 11 17 6 9 1012.9 1012.5 0.0
30/09:00am 17.9 16.3 11.7 67 3.4 W 11 15 6 8 1013.4 1013.0 -
30/08:30am 14.9 14.1 10.9 77 2.2 NNW 6 13 3 7 1013.7 1013.4 -
30/08:00am 14.8 14.8 11.0 78 2.0 NNW 2 9 1 5 1014.1 1013.7 -
30/07:30am 13.8 13.3 10.8 82 1.6 N 4 9 2 5 1014.5 1014.1 -
30/07:00am 13.8 12.8 11.0 83 1.5 S 7 11 4 6 1014.5 1014.1 -
30/06:30am 13.6 12.8 10.9 84 1.4 S 6 9 3 5 1013.9 1013.6 -
30/06:00am 13.5 13.8 11.0 85 1.3 CALM 0 0 0 0 1013.1 1012.7 -
30/05:30am 13.4 13.7 10.9 85 1.3 CALM 0 0 0 0 1013.0 1012.6 -
30/05:00am 13.4 13.7 10.9 85 1.3 CALM 0 0 0 0 1013.2 1012.8 -
30/04:30am 13.4 13.3 10.9 85 1.3 W 2 7 1 4 1013.3 1012.9 -
30/04:00am 13.5 13.1 11.0 85 1.3 NNW 4 7 2 4 1013.7 1013.4 -
30/03:30am 13.6 12.6 11.1 85 1.3 ENE 7 11 4 6 1013.8 1013.5 -
30/03:00am 13.6 12.3 11.1 85 1.3 NE 9 17 5 9 1014.4 1014.0 0.0
30/02:30am 13.5 11.4 11.0 85 1.3 ENE 13 19 7 10 1013.8 1013.5 -
30/02:00am 13.7 11.6 11.0 84 1.4 E 13 19 7 10 1014.3 1013.9 -
30/01:30am 13.7 11.2 11.0 84 1.4 E 15 20 8 11 1013.8 1013.5 -
30/01:00am 13.7 10.8 11.0 84 1.4 ESE 17 24 9 13 1013.8 1013.5 -
30/12:30am 13.9 11.8 11.1 83 1.5 ESE 13 19 7 10 1014.7 1014.3 -
30/12:00am 13.8 11.7 11.0 83 1.5 ESE 13 20 7 11 1014.8 1014.4 -
 
Date/Time
WST
Temp
°C
App
Temp
°C
Dew
Point
Rel
Hum
%
Delta-T
°C
Wind Press
QNH
hPa
Press
MSL
hPa
Rain
since 9 am
mm
Dir
 
Spd
km/h
Gust
km/h
Spd
kts
Gust
kts
29/11:30pm 13.8 10.9 11.0 83 1.5 ESE 17 24 9 13 1014.7 1014.3 -
29/11:00pm 14.0 11.9 11.2 83 1.5 ESE 13 19 7 10 1015.0 1014.6 -
29/10:30pm 14.0 11.9 11.2 83 1.5 ESE 13 19 7 10 1015.3 1014.9 -
29/10:00pm 13.9 11.4 11.1 83 1.5 ESE 15 19 8 10 1015.1 1014.7 -
29/09:30pm 14.0 11.5 11.2 83 1.5 SE 15 17 8 9 1015.6 1015.2 -
29/09:00pm 14.1 11.7 11.3 83 1.5 SE 15 20 8 11 1015.5 1015.1 0.0
29/08:30pm 14.0 11.5 11.2 83 1.5 SE 15 22 8 12 1015.7 1015.3 -
29/08:00pm 14.3 11.8 11.1 81 1.7 SE 15 20 8 11 1015.4 1015.0 -
29/07:30pm 14.7 12.5 10.9 78 2.0 ESE 13 20 7 11 1015.2 1014.8 -
29/07:00pm 14.6 11.6 10.6 77 2.1 ESE 17 22 9 12 1014.8 1014.4 -
29/06:30pm 14.9 12.0 10.9 77 2.2 ESE 17 20 9 11 1014.7 1014.3 -
29/06:00pm 16.0 12.7 11.0 72 2.7 ESE 19 24 10 13 1014.8 1014.4 -
29/05:30pm 17.6 14.4 11.2 66 3.5 ESE 19 28 10 15 1014.8 1014.4 -
29/05:00pm 18.5 15.2 11.6 64 3.8 SE 20 30 11 16 1014.6 1014.2 -
29/04:30pm 19.0 15.6 11.3 61 4.3 ESE 20 30 11 16 1014.6 1014.2 -
29/04:00pm 19.7 16.4 11.7 60 4.5 SE 20 30 11 16 1014.5 1014.1 -
29/03:30pm 20.0 16.9 11.7 59 4.7 ESE 19 26 10 14 1014.4 1014.0 -
29/03:00pm 19.7 16.1 12.0 61 4.3 SE 22 33 12 18 1014.2 1013.8 -
29/02:30pm 20.1 17.0 12.3 61 4.4 SE 20 32 11 17 1014.3 1013.9 -
29/02:00pm 19.3 15.6 11.6 61 4.3 ESE 22 30 12 16 1014.4 1014.0 -
29/01:30pm 19.2 15.7 12.2 64 4.0 SE 22 32 12 17 1015.3 1014.9 -
29/01:00pm 18.7 15.7 12.7 68 3.4 SSE 20 33 11 18 1015.3 1014.9 -
29/12:30pm 19.1 16.3 13.3 69 3.3 SSE 20 30 11 16 1015.4 1015.0 -
29/12:00pm 19.0 16.2 13.2 69 3.3 SSE 20 32 11 17 1015.3 1014.9 -
29/10:00am 17.1 14.4 13.6 80 2.0 SE 20 28 11 15 1016.0 1015.6 0.0
29/09:30am 16.1 13.4 13.4 84 1.5 SE 20 28 11 15 1016.0 1015.6 0.0
29/09:00am 16.2 13.7 13.5 84 1.5 SE 19 26 10 14 1015.8 1015.4 0.0
29/08:30am 15.8 13.3 13.6 87 1.3 SE 19 26 10 14 1015.7 1015.3 0.0
29/08:00am 15.2 12.8 13.9 92 0.7 ESE 19 24 10 13 1015.7 1015.3 0.0
29/07:30am 14.8 12.7 13.7 93 0.6 ESE 17 26 9 14 1015.8 1015.4 0.0

Other Formats:

Comma delimited format used in spreadsheet applications
http://www.bom.gov.au/fwo/IDW60801/IDW60801.95636.axf

JavaScript Object Notation format (JSON) in row-major order
http://www.bom.gov.au/fwo/IDW60801/IDW60801.95636.json